createdAt,value
2022-08-20T00:00:10.481Z,45.89
2022-08-20T00:01:10.469Z,45.79
2022-08-20T00:02:10.542Z,46.68
2022-08-20T00:03:10.450Z,45.97
2022-08-20T00:04:10.442Z,46.68
2022-08-20T00:05:10.424Z,46.19
2022-08-20T00:06:10.415Z,46.68
2022-08-20T00:07:10.401Z,46.68
2022-08-20T00:08:10.392Z,45.89
2022-08-20T00:09:10.382Z,45.97
2022-08-20T00:10:10.375Z,45.99
2022-08-20T00:11:10.359Z,46.66
2022-08-20T00:12:10.347Z,46.68
2022-08-20T00:13:10.337Z,46.68
2022-08-20T00:14:10.325Z,46.19
2022-08-20T00:15:10.315Z,46.68
2022-08-20T00:16:10.310Z,45.89
2022-08-20T00:17:10.291Z,45.97
2022-08-20T00:18:10.281Z,46.68
2022-08-20T00:19:10.271Z,46.09
2022-08-20T00:20:10.258Z,46.68
2022-08-20T00:21:10.248Z,45.89
2022-08-20T00:22:10.244Z,46.68
2022-08-20T00:23:10.694Z,46.78
2022-08-20T00:24:10.215Z,45.89
2022-08-20T00:25:10.203Z,46.68
2022-08-20T00:26:10.195Z,46.68
2022-08-20T00:27:10.183Z,46.68
2022-08-20T00:28:10.201Z,46.97
2022-08-20T00:29:10.160Z,46.68
2022-08-20T00:30:10.149Z,46.19
2022-08-20T00:31:10.138Z,46.78
2022-08-20T00:32:10.126Z,46.68
2022-08-20T00:33:10.115Z,46.88
2022-08-20T00:34:10.136Z,46.68
2022-08-20T00:35:10.093Z,46.78
2022-08-20T00:36:10.082Z,46.48
2022-08-20T00:37:10.072Z,46.97
2022-08-20T00:38:10.064Z,46.48
2022-08-20T00:39:10.049Z,46.48
2022-08-20T00:40:22.503Z,46.48
2022-08-20T00:41:11.029Z,46.48
2022-08-20T00:42:10.018Z,46.48
2022-08-20T00:43:10.005Z,46.78
2022-08-20T00:44:09.996Z,46.46
2022-08-20T00:45:09.987Z,46.48
2022-08-20T00:46:09.978Z,46.68
2022-08-20T00:47:09.961Z,46.48
2022-08-20T00:48:09.950Z,46.48
2022-08-20T00:49:09.940Z,46.48
2022-08-20T00:50:09.927Z,46.48
2022-08-20T00:51:09.916Z,46.58
2022-08-20T00:52:09.911Z,46.48
2022-08-20T00:53:09.895Z,46.58
2022-08-20T00:54:09.883Z,46.56
2022-08-20T00:55:09.872Z,46.48
2022-08-20T00:56:09.862Z,46.68
2022-08-20T00:57:09.852Z,46.48
2022-08-20T00:58:09.868Z,46.48
2022-08-20T00:59:09.829Z,46.97
2022-08-20T01:00:09.817Z,46.58
2022-08-20T01:01:09.808Z,46.58
2022-08-20T01:02:09.824Z,46.58
2022-08-20T01:03:09.982Z,46.58
2022-08-20T01:04:09.805Z,46.58
2022-08-20T01:05:09.763Z,46.48
2022-08-20T01:06:09.750Z,46.46
2022-08-20T01:07:09.741Z,46.66
2022-08-20T01:08:09.728Z,46.97
2022-08-20T01:09:09.718Z,46.78
2022-08-20T01:10:09.726Z,46.78
2022-08-20T01:11:09.695Z,46.68
2022-08-20T01:12:09.688Z,46.58
2022-08-20T01:13:09.677Z,46.58
2022-08-20T01:14:09.662Z,46.75
2022-08-20T01:15:09.651Z,46.78
2022-08-20T01:16:09.647Z,46.68
2022-08-20T01:17:09.647Z,46.68
2022-08-20T01:18:09.622Z,46.66
2022-08-20T01:19:29.476Z,46.78
2022-08-20T01:20:10.598Z,47.07
2022-08-20T01:21:09.585Z,46.78
2022-08-20T01:22:09.583Z,46.58
2022-08-20T01:23:09.564Z,46.58
2022-08-20T01:24:09.554Z,46.58
2022-08-20T01:25:09.544Z,46.97
2022-08-20T01:26:09.530Z,46.75
2022-08-20T01:27:09.520Z,46.78
2022-08-20T01:28:09.516Z,47.07
2022-08-20T01:29:09.497Z,46.48
2022-08-20T01:30:09.486Z,46.78
2022-08-20T01:31:09.477Z,46.78
2022-08-20T01:32:09.465Z,46.97
2022-08-20T01:33:09.452Z,46.78
2022-08-20T01:34:09.464Z,46.78
2022-08-20T01:35:09.432Z,47.17
2022-08-20T01:36:09.420Z,47.17
2022-08-20T01:37:09.409Z,47.07
2022-08-20T01:38:09.398Z,46.97
2022-08-20T01:39:09.390Z,47.07
2022-08-20T01:40:09.518Z,46.48
2022-08-20T01:41:09.365Z,46.97
2022-08-20T01:42:09.356Z,47.07
2022-08-20T01:43:09.764Z,46.78
2022-08-20T01:44:09.331Z,46.78
2022-08-20T01:45:10.336Z,46.48
2022-08-20T01:46:09.309Z,46.68
2022-08-20T01:47:09.300Z,47.07
2022-08-20T01:48:09.579Z,46.58
2022-08-20T01:49:13.476Z,46.48
2022-08-20T01:50:09.266Z,46.68
2022-08-20T01:51:09.262Z,46.68
2022-08-20T01:52:09.246Z,47.07
2022-08-20T01:53:09.232Z,47.07
2022-08-20T01:54:09.221Z,47.07
2022-08-20T01:55:09.210Z,47.07
2022-08-20T01:56:09.199Z,46.78
2022-08-20T01:57:09.195Z,46.58
2022-08-20T01:58:09.177Z,46.85
2022-08-20T01:59:09.166Z,47.07
2022-08-20T02:00:09.155Z,46.68
2022-08-20T02:01:10.179Z,47.07
2022-08-20T02:02:09.133Z,46.78
2022-08-20T02:03:09.128Z,46.78
2022-08-20T02:04:09.110Z,46.68
2022-08-20T02:05:10.098Z,46.75
2022-08-20T02:06:09.092Z,46.78
2022-08-20T02:07:09.079Z,46.58
2022-08-20T02:08:09.067Z,46.78
2022-08-20T02:09:12.133Z,46.85
2022-08-20T02:10:10.043Z,46.78
2022-08-20T02:11:09.033Z,46.78
2022-08-20T02:12:09.022Z,46.78
2022-08-20T02:13:09.013Z,46.88
2022-08-20T02:14:09.000Z,46.38
2022-08-20T02:15:08.995Z,46.88
2022-08-20T02:16:08.978Z,46.78
2022-08-20T02:17:08.966Z,46.88
2022-08-20T02:18:08.955Z,46.88
2022-08-20T02:19:08.945Z,46.97
2022-08-20T02:20:08.936Z,46.97
2022-08-20T02:21:08.927Z,47.07
2022-08-20T02:22:08.912Z,46.88
2022-08-20T02:23:08.901Z,46.68
2022-08-20T02:24:08.890Z,46.68
2022-08-20T02:25:08.884Z,46.58
2022-08-20T02:26:08.869Z,46.88
2022-08-20T02:27:08.865Z,46.97
2022-08-20T02:28:08.845Z,46.88
2022-08-20T02:29:08.835Z,46.38
2022-08-20T02:30:08.823Z,46.68
2022-08-20T02:31:08.813Z,46.48
2022-08-20T02:32:32.270Z,46.58
2022-08-20T02:33:09.798Z,46.38
2022-08-20T02:34:18.475Z,46.68
2022-08-20T02:35:09.767Z,46.58
2022-08-20T02:36:08.760Z,46.68
2022-08-20T02:37:08.748Z,46.58
2022-08-20T02:38:08.737Z,46.38
2022-08-20T02:39:08.731Z,46.38
2022-08-20T02:40:08.819Z,46.38
2022-08-20T02:41:08.703Z,46.68
2022-08-20T02:42:08.691Z,46.38
2022-08-20T02:43:08.682Z,46.48
2022-08-20T02:44:08.669Z,46.68
2022-08-20T02:45:08.704Z,46.38
2022-08-20T02:46:09.646Z,47.07
2022-08-20T02:47:08.637Z,46.38
2022-08-20T02:48:08.626Z,46.68
2022-08-20T02:49:08.614Z,46.68
2022-08-20T02:50:08.603Z,46.68
2022-08-20T02:51:08.608Z,46.68
2022-08-20T02:52:08.582Z,46.97
2022-08-20T02:53:08.584Z,47.07
2022-08-20T02:54:08.559Z,46.48
2022-08-20T02:55:08.551Z,46.58
2022-08-20T02:56:09.557Z,46.48
2022-08-20T02:57:08.528Z,46.38
2022-08-20T02:58:08.516Z,46.58
2022-08-20T02:59:08.503Z,46.48
2022-08-20T03:00:08.494Z,46.48
2022-08-20T03:01:08.519Z,46.48
2022-08-20T03:02:08.482Z,46.48
2022-08-20T03:03:08.459Z,46.38
2022-08-20T03:04:08.451Z,46.28
2022-08-20T03:05:08.437Z,46.58
2022-08-20T03:06:08.428Z,46.48
2022-08-20T03:07:08.418Z,46.38
2022-08-20T03:08:08.430Z,46.28
2022-08-20T03:09:08.394Z,46.19
2022-08-20T03:10:08.383Z,46.38
2022-08-20T03:11:08.372Z,46.38
2022-08-20T03:12:08.361Z,46.58
2022-08-20T03:13:08.351Z,46.38
2022-08-20T03:14:08.344Z,46.38
2022-08-20T03:15:08.327Z,46.48
2022-08-20T03:16:09.318Z,46.28
2022-08-20T03:17:08.307Z,46.38
2022-08-20T03:18:08.296Z,46.28
2022-08-20T03:19:08.284Z,46.38
2022-08-20T03:20:08.303Z,46.28
2022-08-20T03:21:09.937Z,46.58
2022-08-20T03:22:08.250Z,46.38
2022-08-20T03:23:08.238Z,46.48
2022-08-20T03:24:08.230Z,46.38
2022-08-20T03:25:08.217Z,46.19
2022-08-20T03:26:08.221Z,46.38
2022-08-20T03:27:08.195Z,46.38
2022-08-20T03:28:08.185Z,46.28
2022-08-20T03:29:08.174Z,46.38
2022-08-20T03:30:08.163Z,46.38
2022-08-20T03:31:08.151Z,46.38
2022-08-20T03:32:08.146Z,46.48
2022-08-20T03:33:08.129Z,46.48
2022-08-20T03:34:08.117Z,46.48
2022-08-20T03:35:08.108Z,46.38
2022-08-20T03:36:08.096Z,46.48
2022-08-20T03:37:08.085Z,46.38
2022-08-20T03:38:08.083Z,46.28
2022-08-20T03:39:08.062Z,46.38
2022-08-20T03:40:08.092Z,46.48
2022-08-20T03:41:08.041Z,46.38
2022-08-20T03:42:08.032Z,46.28
2022-08-20T03:43:08.018Z,46.38
2022-08-20T03:44:08.014Z,46.58
2022-08-20T03:45:07.997Z,46.19
2022-08-20T03:46:23.142Z,46.38
2022-08-20T03:47:08.973Z,46.38
2022-08-20T03:48:07.962Z,46.41
2022-08-20T03:49:07.952Z,46.19
2022-08-20T03:50:08.486Z,46.28
2022-08-20T03:51:07.930Z,46.38
2022-08-20T03:52:07.919Z,46.28
2022-08-20T03:53:07.908Z,46.38
2022-08-20T03:54:08.897Z,46.28
2022-08-20T03:55:07.885Z,46.38
2022-08-20T03:56:07.881Z,46.31
2022-08-20T03:57:12.628Z,46.38
2022-08-20T03:58:08.852Z,46.38
2022-08-20T03:59:07.843Z,46.38
2022-08-20T04:00:07.830Z,46.38
2022-08-20T04:01:07.920Z,46.28
2022-08-20T04:02:08.845Z,46.41
2022-08-20T04:03:07.798Z,46.28
2022-08-20T04:04:12.081Z,46.38
2022-08-20T04:05:07.779Z,46.28
2022-08-20T04:06:07.763Z,46.28
2022-08-20T04:07:07.753Z,46.38
2022-08-20T04:08:07.747Z,46.28
2022-08-20T04:09:07.731Z,46.38
2022-08-20T04:10:07.721Z,46.28
2022-08-20T04:11:07.709Z,46.38
2022-08-20T04:12:07.698Z,46.38
2022-08-20T04:13:07.687Z,46.38
2022-08-20T04:14:07.688Z,46.19
2022-08-20T04:15:07.664Z,46.28
2022-08-20T04:16:07.654Z,46.28
2022-08-20T04:17:07.643Z,46.28
2022-08-20T04:18:07.631Z,46.28
2022-08-20T04:19:07.619Z,46.38
2022-08-20T04:20:07.617Z,46.28
2022-08-20T04:21:07.598Z,46.38
2022-08-20T04:22:07.587Z,46.38
2022-08-20T04:23:07.577Z,46.38
2022-08-20T04:24:07.566Z,46.38
2022-08-20T04:25:08.584Z,46.28
2022-08-20T04:26:07.544Z,46.38
2022-08-20T04:27:07.532Z,46.38
2022-08-20T04:28:07.521Z,46.38
2022-08-20T04:29:07.510Z,46.38
2022-08-20T04:30:07.500Z,46.28
2022-08-20T04:31:07.510Z,46.38
2022-08-20T04:32:07.477Z,46.38
2022-08-20T04:33:07.497Z,46.28
2022-08-20T04:34:07.455Z,46.38
2022-08-20T04:35:07.444Z,46.38
2022-08-20T04:36:07.433Z,46.38
2022-08-20T04:37:16.588Z,46.38
2022-08-20T04:38:08.410Z,46.38
2022-08-20T04:39:07.400Z,46.48
2022-08-20T04:40:07.450Z,46.38
2022-08-20T04:41:07.379Z,46.41
2022-08-20T04:42:08.373Z,46.38
2022-08-20T04:43:07.355Z,46.48
2022-08-20T04:44:07.347Z,46.28
2022-08-20T04:45:07.333Z,46.48
2022-08-20T04:46:07.324Z,46.38
2022-08-20T04:47:07.316Z,46.28
2022-08-20T04:48:10.593Z,46.28
2022-08-20T04:49:08.288Z,46.38
2022-08-20T04:50:07.280Z,46.28
2022-08-20T04:51:07.267Z,46.28
2022-08-20T04:52:07.258Z,46.19
2022-08-20T04:53:07.253Z,46.28
2022-08-20T04:54:07.733Z,46.38
2022-08-20T04:55:07.223Z,46.28
2022-08-20T04:56:07.212Z,46.28
2022-08-20T04:57:07.201Z,46.48
2022-08-20T04:58:07.190Z,46.48
2022-08-20T04:59:07.179Z,46.38
2022-08-20T05:00:07.202Z,46.48
2022-08-20T05:01:07.205Z,46.68
2022-08-20T05:02:07.147Z,46.38
2022-08-20T05:03:07.141Z,46.38
2022-08-20T05:04:07.125Z,46.38
2022-08-20T05:05:07.113Z,46.38
2022-08-20T05:06:07.117Z,46.58
2022-08-20T05:07:07.091Z,46.58
2022-08-20T05:08:07.080Z,46.38
2022-08-20T05:09:08.068Z,47.07
2022-08-20T05:10:07.059Z,46.48
2022-08-20T05:11:33.773Z,46.97
2022-08-20T05:12:08.058Z,46.97
2022-08-20T05:13:07.026Z,46.68
2022-08-20T05:14:07.956Z,46.38
2022-08-20T05:15:07.005Z,46.97
2022-08-20T05:16:06.993Z,46.58
2022-08-20T05:17:06.981Z,46.38
2022-08-20T05:18:06.978Z,46.38
2022-08-20T05:19:07.006Z,46.88
2022-08-20T05:20:06.954Z,46.97
2022-08-20T05:21:06.938Z,46.95
2022-08-20T05:22:06.926Z,46.78
2022-08-20T05:23:06.915Z,46.48
2022-08-20T05:24:06.909Z,46.48
2022-08-20T05:25:06.892Z,46.48
2022-08-20T05:26:06.882Z,46.97
2022-08-20T05:27:06.871Z,46.58
2022-08-20T05:28:06.860Z,47.07
2022-08-20T05:29:06.933Z,47.07
2022-08-20T05:30:06.845Z,47.17
2022-08-20T05:31:06.829Z,47.07
2022-08-20T05:32:06.816Z,46.97
2022-08-20T05:33:06.807Z,47.15
2022-08-20T05:34:06.802Z,46.97
2022-08-20T05:35:06.787Z,46.78
2022-08-20T05:36:06.810Z,46.97
2022-08-20T05:37:07.735Z,46.68
2022-08-20T05:38:06.752Z,46.68
2022-08-20T05:39:06.738Z,46.68
2022-08-20T05:40:06.760Z,46.78
2022-08-20T05:41:06.716Z,46.75
2022-08-20T05:42:06.721Z,46.88
2022-08-20T05:43:06.694Z,45.89
2022-08-20T05:44:06.682Z,45.87
2022-08-20T05:45:11.054Z,45.97
2022-08-20T05:46:06.662Z,46.17
2022-08-20T05:47:06.650Z,46.17
2022-08-20T05:48:06.651Z,46.17
2022-08-20T05:49:06.627Z,46.06
2022-08-20T05:50:06.617Z,46.17
2022-08-20T05:51:06.607Z,46.17
2022-08-20T05:52:06.594Z,46.17
2022-08-20T05:53:06.583Z,46.26
2022-08-20T05:54:06.578Z,46.06
2022-08-20T05:55:06.562Z,46.36
2022-08-20T05:56:06.550Z,46.26
2022-08-20T05:57:06.539Z,45.97
2022-08-20T05:58:06.529Z,46.36
2022-08-20T05:59:06.517Z,45.97
2022-08-20T06:00:06.529Z,46.36
2022-08-20T06:01:06.534Z,45.97
2022-08-20T06:02:06.484Z,46.17
2022-08-20T06:03:06.474Z,45.97
2022-08-20T06:04:06.463Z,46.06
2022-08-20T06:05:06.455Z,45.97
2022-08-20T06:06:18.191Z,46.26
2022-08-20T06:07:07.427Z,46.17
2022-08-20T06:08:07.331Z,45.87
2022-08-20T06:09:06.407Z,46.06
2022-08-20T06:10:06.401Z,46.06
2022-08-20T06:11:06.385Z,46.17
2022-08-20T06:12:06.432Z,46.06
2022-08-20T06:13:06.370Z,46.46
2022-08-20T06:14:06.353Z,46.56
2022-08-20T06:15:06.340Z,46.06
2022-08-20T06:16:06.928Z,46.06
2022-08-20T06:17:06.322Z,46.17
2022-08-20T06:18:10.103Z,45.97
2022-08-20T06:19:11.415Z,45.87
2022-08-20T06:20:06.285Z,45.97
2022-08-20T06:21:06.275Z,46.17
2022-08-20T06:22:18.386Z,46.06
2022-08-20T06:23:07.268Z,45.97
2022-08-20T06:24:06.241Z,46.06
2022-08-20T06:25:06.230Z,45.97
2022-08-20T06:26:06.219Z,45.97
2022-08-20T06:27:06.208Z,46.06
2022-08-20T06:28:06.197Z,45.97
2022-08-20T06:29:06.192Z,46.06
2022-08-20T06:30:06.174Z,46.06
2022-08-20T06:31:06.165Z,46.06
2022-08-20T06:32:06.153Z,45.97
2022-08-20T06:33:06.141Z,46.66
2022-08-20T06:34:06.131Z,46.17
2022-08-20T06:35:06.126Z,46.06
2022-08-20T06:36:06.112Z,46.26
2022-08-20T06:37:06.101Z,46.06
2022-08-20T06:38:06.091Z,46.36
2022-08-20T06:39:06.076Z,45.97
2022-08-20T06:40:06.163Z,45.97
2022-08-20T06:41:06.060Z,45.97
2022-08-20T06:42:06.043Z,46.36
2022-08-20T06:43:06.032Z,45.97
2022-08-20T06:44:06.023Z,46.36
2022-08-20T06:45:06.011Z,46.36
2022-08-20T06:46:05.999Z,46.17
2022-08-20T06:47:06.019Z,46.17
2022-08-20T06:48:05.978Z,45.97
2022-08-20T06:49:05.966Z,46.17
2022-08-20T06:50:05.955Z,45.97
2022-08-20T06:51:05.944Z,45.97
2022-08-20T06:52:05.937Z,45.97
2022-08-20T06:53:06.099Z,46.17
2022-08-20T06:54:05.912Z,46.06
2022-08-20T06:55:05.899Z,46.26
2022-08-20T06:56:05.889Z,46.36
2022-08-20T06:57:05.878Z,45.97
2022-08-20T06:58:05.873Z,46.06
2022-08-20T06:59:05.864Z,46.06
2022-08-20T07:00:05.846Z,46.17
2022-08-20T07:01:09.036Z,45.97
2022-08-20T07:02:05.830Z,46.26
2022-08-20T07:03:05.812Z,46.17
2022-08-20T07:04:05.807Z,45.97
2022-08-20T07:05:05.811Z,46.06
2022-08-20T07:06:05.780Z,45.97
2022-08-20T07:07:05.768Z,46.06
2022-08-20T07:08:05.758Z,46.06
2022-08-20T07:09:05.748Z,45.97
2022-08-20T07:10:05.737Z,45.87
2022-08-20T07:11:05.737Z,46.06
2022-08-20T07:12:05.714Z,45.87
2022-08-20T07:13:05.702Z,46.06
2022-08-20T07:14:05.696Z,46.26
2022-08-20T07:15:05.682Z,46.36
2022-08-20T07:16:05.674Z,46.36
2022-08-20T07:17:05.665Z,45.97
2022-08-20T07:18:06.650Z,46.36
2022-08-20T07:19:05.637Z,46.06
2022-08-20T07:20:05.625Z,45.97
2022-08-20T07:21:05.633Z,45.87
2022-08-20T07:22:05.605Z,46.85
2022-08-20T07:23:05.611Z,45.97
2022-08-20T07:24:05.605Z,46.06
2022-08-20T07:25:05.572Z,46.06
2022-08-20T07:26:05.559Z,46.06
2022-08-20T07:27:05.560Z,46.36
2022-08-20T07:28:05.540Z,46.06
2022-08-20T07:29:05.557Z,46.17
2022-08-20T07:30:05.515Z,45.97
2022-08-20T07:31:13.587Z,46.06
2022-08-20T07:32:06.492Z,46.17
2022-08-20T07:33:06.813Z,46.06
2022-08-20T07:34:05.470Z,45.97
2022-08-20T07:35:05.468Z,45.97
2022-08-20T07:36:05.449Z,46.06
2022-08-20T07:37:05.437Z,46.26
2022-08-20T07:38:05.429Z,46.06
2022-08-20T07:39:05.906Z,45.97
2022-08-20T07:40:05.465Z,46.06
2022-08-20T07:41:05.403Z,46.06
2022-08-20T07:42:05.382Z,46.17
2022-08-20T07:43:05.371Z,46.36
2022-08-20T07:44:05.360Z,46.06
2022-08-20T07:45:05.350Z,46.36
2022-08-20T07:46:05.340Z,46.36
2022-08-20T07:47:05.333Z,46.17
2022-08-20T07:48:05.317Z,46.36
2022-08-20T07:49:05.306Z,45.97
2022-08-20T07:50:05.297Z,46.26
2022-08-20T07:51:05.286Z,46.36
2022-08-20T07:52:05.286Z,46.17
2022-08-20T07:53:05.267Z,46.06
2022-08-20T07:54:05.250Z,46.06
2022-08-20T07:55:05.239Z,46.17
2022-08-20T07:56:05.229Z,46.06
2022-08-20T07:57:05.478Z,46.36
2022-08-20T07:58:05.206Z,46.36
2022-08-20T07:59:05.224Z,45.97
2022-08-20T08:00:05.185Z,46.26
2022-08-20T08:01:05.276Z,46.17
2022-08-20T08:02:05.165Z,46.36
2022-08-20T08:03:05.164Z,46.36
2022-08-20T08:04:05.143Z,46.26
2022-08-20T08:05:05.151Z,46.36
2022-08-20T08:06:05.118Z,46.17
2022-08-20T08:07:05.108Z,46.26
2022-08-20T08:08:07.350Z,46.36
2022-08-20T08:09:05.085Z,46.17
2022-08-20T08:10:05.077Z,46.17
2022-08-20T08:11:05.071Z,46.26
2022-08-20T08:12:05.054Z,46.36
2022-08-20T08:13:05.042Z,46.06
2022-08-20T08:14:05.031Z,46.17
2022-08-20T08:15:05.020Z,45.97
2022-08-20T08:16:05.009Z,46.06
2022-08-20T08:17:05.006Z,45.97
2022-08-20T08:18:04.987Z,45.97
2022-08-20T08:19:04.975Z,46.36
2022-08-20T08:20:04.969Z,46.17
2022-08-20T08:21:04.955Z,45.97
2022-08-20T08:22:04.951Z,45.97
2022-08-20T08:23:04.938Z,46.06
2022-08-20T08:24:04.921Z,45.97
2022-08-20T08:25:04.911Z,46.06
2022-08-20T08:26:04.899Z,46.06
2022-08-20T08:27:04.889Z,46.17
2022-08-20T08:28:04.879Z,46.06
2022-08-20T08:29:04.895Z,46.06
2022-08-20T08:30:04.875Z,46.06
2022-08-20T08:31:04.844Z,45.97
2022-08-20T08:32:04.833Z,46.36
2022-08-20T08:33:04.822Z,46.36
2022-08-20T08:34:04.811Z,46.06
2022-08-20T08:35:04.817Z,46.26
2022-08-20T08:36:04.788Z,46.26
2022-08-20T08:37:04.779Z,46.06
2022-08-20T08:38:04.766Z,46.26
2022-08-20T08:39:04.755Z,46.26
2022-08-20T08:40:04.813Z,46.36
2022-08-20T08:41:04.739Z,46.75
2022-08-20T08:42:04.725Z,46.06
2022-08-20T08:43:04.719Z,46.36
2022-08-20T08:44:04.703Z,46.26
2022-08-20T08:45:04.692Z,46.06
2022-08-20T08:46:04.678Z,46.06
2022-08-20T08:47:04.681Z,46.26
2022-08-20T08:48:04.656Z,46.26
2022-08-20T08:49:04.645Z,46.26
2022-08-20T08:50:04.654Z,46.06
2022-08-20T08:51:04.622Z,46.26
2022-08-20T08:52:04.618Z,46.17
2022-08-20T08:53:04.607Z,46.26
2022-08-20T08:54:06.947Z,46.17
2022-08-20T08:55:04.579Z,46.36
2022-08-20T08:56:04.567Z,46.17
2022-08-20T08:57:04.561Z,46.26
2022-08-20T08:58:17.381Z,46.85
2022-08-20T08:59:05.563Z,46.17
2022-08-20T09:00:05.435Z,46.46
2022-08-20T09:01:06.973Z,46.56
2022-08-20T09:02:05.517Z,46.26
2022-08-20T09:03:04.490Z,46.75
2022-08-20T09:04:04.479Z,46.34
2022-08-20T09:05:04.476Z,46.75
2022-08-20T09:06:04.486Z,46.17
2022-08-20T09:07:04.446Z,46.66
2022-08-20T09:08:04.439Z,46.75
2022-08-20T09:09:04.425Z,45.77
2022-08-20T09:10:04.416Z,46.75
2022-08-20T09:11:04.433Z,46.06
2022-08-20T09:12:04.391Z,46.75
2022-08-20T09:13:04.404Z,46.36
2022-08-20T09:14:04.370Z,46.66
2022-08-20T09:15:04.361Z,46.75
2022-08-20T09:16:04.367Z,46.66
2022-08-20T09:17:04.353Z,46.06
2022-08-20T09:18:04.330Z,45.77
2022-08-20T09:19:04.315Z,46.46
2022-08-20T09:20:04.303Z,45.95
2022-08-20T09:21:04.292Z,45.97
2022-08-20T09:22:04.292Z,45.65
2022-08-20T09:23:04.276Z,45.97
2022-08-20T09:24:04.262Z,46.36
2022-08-20T09:25:04.247Z,45.65
2022-08-20T09:26:04.238Z,45.75
2022-08-20T09:27:04.227Z,46.56
2022-08-20T09:28:04.215Z,46.24
2022-08-20T09:29:04.226Z,46.44
2022-08-20T09:30:04.193Z,46.14
2022-08-20T09:31:04.468Z,46.46
2022-08-20T09:32:04.187Z,46.44
2022-08-20T09:33:04.161Z,46.14
2022-08-20T09:34:04.148Z,46.34
2022-08-20T09:35:08.888Z,46.24
2022-08-20T09:36:05.127Z,46.24
2022-08-20T09:37:05.117Z,45.85
2022-08-20T09:38:04.105Z,46.14
2022-08-20T09:39:04.092Z,46.24
2022-08-20T09:40:04.188Z,46.04
2022-08-20T09:41:04.077Z,46.34
2022-08-20T09:42:04.061Z,45.95
2022-08-20T09:43:04.049Z,45.75
2022-08-20T09:44:04.038Z,46.04
2022-08-20T09:45:04.027Z,46.04
2022-08-20T09:46:05.022Z,45.95
2022-08-20T09:47:04.005Z,45.85
2022-08-20T09:48:03.994Z,45.85
2022-08-20T09:49:03.982Z,45.85
2022-08-20T09:50:03.974Z,45.85
2022-08-20T09:51:03.961Z,45.85
2022-08-20T09:52:03.956Z,46.04
2022-08-20T09:53:03.938Z,45.95
2022-08-20T09:54:03.928Z,46.04
2022-08-20T09:55:03.922Z,46.04
2022-08-20T09:56:03.906Z,45.95
2022-08-20T09:57:03.895Z,46.14
2022-08-20T09:58:03.891Z,46.04
2022-08-20T09:59:03.874Z,45.85
2022-08-20T10:00:03.862Z,45.95
2022-08-20T10:01:03.851Z,46.04
2022-08-20T10:02:03.926Z,46.04
2022-08-20T10:03:03.830Z,46.04
2022-08-20T10:04:03.823Z,46.04
2022-08-20T10:05:03.806Z,46.04
2022-08-20T10:06:03.796Z,45.95
2022-08-20T10:07:03.784Z,46.04
2022-08-20T10:08:03.773Z,46.04
2022-08-20T10:09:03.762Z,45.85
2022-08-20T10:10:03.767Z,45.65
2022-08-20T10:11:03.741Z,45.95
2022-08-20T10:12:03.729Z,45.75
2022-08-20T10:13:03.720Z,45.75
2022-08-20T10:14:03.707Z,46.24
2022-08-20T10:15:03.698Z,45.95
2022-08-20T10:16:03.706Z,45.55
2022-08-20T10:17:03.674Z,45.06
2022-08-20T10:18:03.663Z,45.06
2022-08-20T10:19:03.653Z,45.75
2022-08-20T10:20:03.640Z,45.16
2022-08-20T10:21:03.629Z,45.36
2022-08-20T10:22:03.626Z,45.26
2022-08-20T10:23:03.616Z,45.06
2022-08-20T10:24:03.598Z,44.94
2022-08-20T10:25:03.586Z,45.34
2022-08-20T10:26:03.578Z,45.24
2022-08-20T10:27:03.570Z,45.14
2022-08-20T10:28:03.559Z,45.14
2022-08-20T10:29:03.543Z,45.53
2022-08-20T10:30:03.533Z,45.43
2022-08-20T10:31:03.519Z,45.53
2022-08-20T10:32:03.508Z,45.43
2022-08-20T10:33:03.497Z,45.24
2022-08-20T10:34:03.492Z,45.43
2022-08-20T10:35:03.477Z,45.73
2022-08-20T10:36:03.464Z,45.43
2022-08-20T10:37:03.454Z,45.63
2022-08-20T10:38:03.442Z,45.73
2022-08-20T10:39:03.434Z,45.53
2022-08-20T10:40:03.523Z,45.92
2022-08-20T10:41:03.419Z,45.43
2022-08-20T10:42:03.397Z,45.43
2022-08-20T10:43:03.387Z,45.43
2022-08-20T10:44:03.375Z,45.73
2022-08-20T10:45:03.371Z,45.73
2022-08-20T10:46:03.379Z,45.53
2022-08-20T10:47:03.342Z,46.12
2022-08-20T10:48:03.333Z,46.22
2022-08-20T10:49:03.324Z,45.53
2022-08-20T10:50:03.315Z,45.63
2022-08-20T10:51:03.299Z,45.53
2022-08-20T10:52:03.297Z,45.24
2022-08-20T10:53:03.286Z,45.92
2022-08-20T10:54:03.266Z,45.92
2022-08-20T10:55:03.255Z,45.92
2022-08-20T10:56:03.245Z,45.92
2022-08-20T10:57:03.246Z,45.14
2022-08-20T10:58:03.232Z,45.34
2022-08-20T10:59:03.212Z,45.83
2022-08-20T11:00:03.198Z,45.14
2022-08-20T11:01:03.188Z,45.02
2022-08-20T11:02:03.210Z,45.73
2022-08-20T11:03:03.166Z,45.83
2022-08-20T11:04:03.178Z,45.80
2022-08-20T11:05:03.146Z,44.94
2022-08-20T11:06:03.135Z,45.73
2022-08-20T11:07:03.123Z,45.04
2022-08-20T11:08:03.471Z,45.51
2022-08-20T11:09:03.100Z,45.73
2022-08-20T11:10:03.095Z,45.02
2022-08-20T11:11:03.086Z,44.94
2022-08-20T11:12:03.066Z,45.83
2022-08-20T11:13:03.066Z,46.10
2022-08-20T11:14:03.045Z,45.02
2022-08-20T11:15:03.034Z,44.94
2022-08-20T11:16:03.031Z,45.90
2022-08-20T11:17:03.015Z,45.24
2022-08-20T11:18:03.001Z,45.04
2022-08-20T11:19:02.997Z,45.53
2022-08-20T11:20:02.978Z,45.04
2022-08-20T11:21:02.968Z,45.73
2022-08-20T11:22:02.986Z,45.41
2022-08-20T11:23:02.959Z,45.53
2022-08-20T11:24:03.277Z,45.92
2022-08-20T11:25:02.926Z,45.34
2022-08-20T11:26:02.912Z,45.04
2022-08-20T11:27:02.901Z,45.92
2022-08-20T11:28:02.897Z,45.53
2022-08-20T11:29:02.879Z,45.12
2022-08-20T11:30:02.869Z,45.83
2022-08-20T11:31:02.857Z,45.73
2022-08-20T11:32:02.848Z,45.73
2022-08-20T11:33:02.836Z,45.92
2022-08-20T11:34:02.830Z,45.73
2022-08-20T11:35:18.736Z,45.83
2022-08-20T11:36:03.801Z,45.24
2022-08-20T11:37:02.793Z,45.43
2022-08-20T11:38:02.781Z,45.92
2022-08-20T11:39:02.771Z,46.12
2022-08-20T11:40:02.801Z,45.92
2022-08-20T11:41:02.748Z,45.92
2022-08-20T11:42:02.738Z,46.12
2022-08-20T11:43:18.508Z,45.92
2022-08-20T11:44:20.263Z,45.34
2022-08-20T11:45:03.710Z,46.02
2022-08-20T11:46:02.693Z,45.63
2022-08-20T11:47:02.681Z,45.53
2022-08-20T11:48:02.672Z,45.73
2022-08-20T11:49:02.663Z,46.02
2022-08-20T11:50:02.648Z,45.63
2022-08-20T11:51:02.644Z,45.53
2022-08-20T11:52:02.626Z,46.12
2022-08-20T11:53:02.617Z,45.63
2022-08-20T11:54:02.610Z,46.12
2022-08-20T11:55:02.610Z,46.12
2022-08-20T11:56:02.584Z,45.63
2022-08-20T11:57:02.580Z,45.53
2022-08-20T11:58:02.563Z,45.43
2022-08-20T11:59:02.550Z,45.53
2022-08-20T12:00:02.539Z,45.63
2022-08-20T12:01:02.528Z,45.63
2022-08-20T12:02:03.691Z,45.63
2022-08-20T12:03:02.608Z,45.63
2022-08-20T12:04:02.496Z,45.63
2022-08-20T12:05:02.561Z,45.63
2022-08-20T12:06:02.475Z,45.53
2022-08-20T12:07:02.463Z,45.43
2022-08-20T12:08:02.450Z,45.43
2022-08-20T12:09:02.446Z,46.02
2022-08-20T12:10:02.428Z,45.73
2022-08-20T12:11:02.420Z,45.43
2022-08-20T12:12:02.410Z,45.43
2022-08-20T12:13:02.589Z,45.43
2022-08-20T12:14:02.387Z,45.53
2022-08-20T12:15:02.379Z,45.63
2022-08-20T12:16:02.362Z,45.63
2022-08-20T12:17:02.352Z,45.53
2022-08-20T12:18:02.340Z,45.73
2022-08-20T12:19:02.331Z,45.63
2022-08-20T12:20:02.319Z,45.34
2022-08-20T12:21:02.314Z,45.73
2022-08-20T12:22:23.125Z,46.02
2022-08-20T12:23:03.284Z,45.63
2022-08-20T12:24:02.275Z,46.22
2022-08-20T12:25:02.264Z,45.63
2022-08-20T12:26:02.251Z,46.22
2022-08-20T12:27:02.264Z,46.12
2022-08-20T12:28:02.235Z,45.73
2022-08-20T12:29:02.220Z,45.63
2022-08-20T12:30:02.208Z,46.02
2022-08-20T12:31:02.197Z,46.22
2022-08-20T12:32:02.187Z,45.63
2022-08-20T12:33:02.182Z,45.43
2022-08-20T12:34:02.166Z,46.22
2022-08-20T12:35:02.160Z,46.22
2022-08-20T12:36:02.142Z,46.12
2022-08-20T12:37:02.133Z,46.02
2022-08-20T12:38:02.121Z,45.92
2022-08-20T12:39:02.117Z,45.92
2022-08-20T12:40:02.171Z,46.22
2022-08-20T12:41:02.088Z,45.92
2022-08-20T12:42:02.078Z,45.92
2022-08-20T12:43:02.066Z,45.92
2022-08-20T12:44:02.054Z,45.92
2022-08-20T12:45:02.113Z,46.02
2022-08-20T12:46:02.033Z,46.02
2022-08-20T12:47:02.024Z,45.92
2022-08-20T12:48:02.015Z,46.12
2022-08-20T12:49:01.999Z,46.12
2022-08-20T12:50:01.993Z,46.22
2022-08-20T12:51:01.996Z,45.53
2022-08-20T12:52:01.968Z,45.53